Time;durP1;ratioP1;P1;durP2;ratioP2;P2;SDS_P1;SDS_P2;PMS_P1;PMS_P2;Temp;Humidity;BMP_temperature;BMP_pressure;BME280_temperature;BME280_humidity;BME280_pressure;Samples;Min_cycle;Max_cycle;Signal;HPM_P1;HPM_P2
2021/06/19 00:01:54;;;;;;;;;;;24.50;48.90;;;;;;5088177;28;19912;-85
2021/06/19 00:04:19;;;;;;;;;;;24.40;48.90;;;;;;5094640;28;19912;-85
2021/06/19 00:06:47;;;;;;;;;;;24.40;48.90;;;;;;5106422;28;19916;-85
2021/06/19 00:09:15;;;;;;;;;;;24.30;48.90;;;;;;5099780;28;20002;-85
2021/06/19 00:11:42;;;;;;;;;;;24.30;49.00;;;;;;5094384;28;19912;-84
2021/06/19 00:14:10;;;;;;;;;;;24.30;49.00;;;;;;5104597;28;19916;-85
2021/06/19 00:16:36;;;;;;;;;;;24.30;49.10;;;;;;5118455;28;19912;-85
2021/06/19 00:19:11;;;;;;;;;;;;;;;;;;;;;
2021/06/19 00:21:37;;;;;;;;;;;24.20;49.30;;;;;;5125132;28;19991;-84
2021/06/19 00:24:03;;;;;;;;;;;24.20;49.50;;;;;;5099965;28;19913;-85
2021/06/19 00:26:28;;;;;;;;;;;24.10;49.60;;;;;;5121970;28;19912;-85
2021/06/19 00:28:56;;;;;;;;;;;24.00;49.60;;;;;;5105552;28;19919;-85
2021/06/19 00:31:22;;;;;;;;;;;24.00;49.80;;;;;;5105353;28;20073;-85
2021/06/19 00:38:57;;;;;;;;;;;23.80;50.10;;;;;;5037379;28;19971;-84
2021/06/19 00:44:39;;;;;;;;;;;23.70;50.50;;;;;;5022290;28;19920;-84
2021/06/19 00:47:04;;;;;;;;;;;23.60;50.70;;;;;;5020497;28;19921;-84
2021/06/19 00:49:30;;;;;;;;;;;23.60;50.80;;;;;;5040441;28;19920;-84
2021/06/19 00:51:55;;;;;;;;;;;23.50;50.80;;;;;;5026795;28;19928;-84
2021/06/19 00:54:21;;;;;;;;;;;23.50;50.80;;;;;;5006198;28;19920;-84
2021/06/19 00:56:48;;;;;;;;;;;23.50;51.00;;;;;;5027085;28;19920;-84
2021/06/19 00:59:13;;;;;;;;;;;23.40;51.00;;;;;;5032222;28;19921;-84
2021/06/19 01:01:39;;;;;;;;;;;23.40;51.10;;;;;;5045494;28;19909;-83
2021/06/19 01:04:05;;;;;;;;;;;23.40;51.20;;;;;;5020955;28;19939;-84
2021/06/19 01:06:32;;;;;;;;;;;23.30;51.20;;;;;;5020873;28;19939;-83
2021/06/19 01:08:57;;;;;;;;;;;23.20;51.20;;;;;;5030556;28;19960;-83
2021/06/19 01:11:24;;;;;;;;;;;23.20;51.30;;;;;;5024187;28;19909;-83
2021/06/19 01:13:49;;;;;;;;;;;23.20;51.40;;;;;;5037815;28;19913;-84
2021/06/19 01:16:19;;;;;;;;;;;23.10;51.40;;;;;;5041856;28;19960;-83
2021/06/19 01:18:45;;;;;;;;;;;23.10;51.50;;;;;;5044415;28;19928;-83
2021/06/19 01:21:12;;;;;;;;;;;23.10;51.50;;;;;;5042748;28;19913;-81
2021/06/19 01:23:37;;;;;;;;;;;23.10;51.50;;;;;;5043907;28;20263;-83
2021/06/19 01:26:03;;;;;;;;;;;23.00;51.40;;;;;;5043427;28;19920;-83
2021/06/19 01:28:28;;;;;;;;;;;23.00;51.40;;;;;;5043347;28;20466;-83
2021/06/19 01:30:53;;;;;;;;;;;23.00;51.40;;;;;;5041869;28;19913;-83
2021/06/19 01:33:20;;;;;;;;;;;23.00;51.40;;;;;;5044014;28;19927;-83
2021/06/19 01:35:46;;;;;;;;;;;23.00;51.40;;;;;;5043244;28;19966;-84
2021/06/19 01:38:11;;;;;;;;;;;23.00;52.00;;;;;;5047528;28;19921;-84
2021/06/19 01:40:37;;;;;;;;;;;23.00;51.40;;;;;;5044354;28;19913;-84
2021/06/19 01:43:02;;;;;;;;;;;23.00;51.40;;;;;;5045141;28;19940;-83
2021/06/19 01:45:30;;;;;;;;;;;23.00;51.40;;;;;;5042380;28;19980;-84
2021/06/19 01:47:58;;;;;;;;;;;23.00;51.40;;;;;;5044596;28;19984;-83
2021/06/19 01:50:24;;;;;;;;;;;22.90;51.40;;;;;;5027004;28;19913;-84
2021/06/19 01:52:50;;;;;;;;;;;22.90;51.60;;;;;;5045089;28;19913;-84
2021/06/19 01:55:16;;;;;;;;;;;22.80;51.70;;;;;;5045393;28;19919;-83
2021/06/19 01:57:42;;;;;;;;;;;22.80;51.80;;;;;;5045121;28;19921;-84
2021/06/19 02:00:18;;;;;;;;;;;22.70;52.00;;;;;;5027313;28;19975;-84
2021/06/19 02:02:43;;;;;;;;;;;22.70;52.10;;;;;;5045172;28;20474;-84
2021/06/19 02:05:10;;;;;;;;;;;22.70;52.20;;;;;;5044517;28;19945;-83
2021/06/19 02:07:55;;;;;;;;;;;22.60;52.20;;;;;;5045053;28;19917;-83
2021/06/19 02:10:25;;;;;;;;;;;22.60;52.30;;;;;;5043664;28;19924;-84
2021/06/19 02:12:51;;;;;;;;;;;22.50;52.40;;;;;;5043998;28;19917;-84
2021/06/19 02:15:19;;;;;;;;;;;22.50;52.70;;;;;;5043578;28;20002;-83
2021/06/19 02:17:45;;;;;;;;;;;22.50;52.90;;;;;;5045018;28;19909;-84
2021/06/19 02:20:12;;;;;;;;;;;22.40;52.90;;;;;;5043761;28;19951;-84
2021/06/19 02:22:37;;;;;;;;;;;22.40;53.10;;;;;;5045728;28;19909;-83
2021/06/19 02:25:06;;;;;;;;;;;22.30;53.10;;;;;;5043865;28;19999;-84
2021/06/19 02:27:31;;;;;;;;;;;22.30;53.10;;;;;;5043632;28;19980;-83
2021/06/19 02:29:57;;;;;;;;;;;22.30;53.20;;;;;;5041387;28;20382;-83
2021/06/19 02:32:22;;;;;;;;;;;22.30;53.30;;;;;;5043988;28;19916;-83
2021/06/19 02:34:48;;;;;;;;;;;22.20;53.20;;;;;;5041735;28;19959;-84
2021/06/19 02:37:13;;;;;;;;;;;22.20;53.30;;;;;;5020073;28;19925;-82
2021/06/19 02:39:39;;;;;;;;;;;22.20;53.30;;;;;;5034096;28;19985;-83
2021/06/19 02:42:04;;;;;;;;;;;22.20;53.40;;;;;;5021264;28;20529;-82
2021/06/19 02:44:30;;;;;;;;;;;22.10;53.40;;;;;;5020180;28;20413;-81
2021/06/19 02:46:55;;;;;;;;;;;22.10;53.50;;;;;;5035562;28;19909;-83
2021/06/19 02:49:21;;;;;;;;;;;22.10;53.60;;;;;;5034211;28;19921;-82
2021/06/19 02:51:46;;;;;;;;;;;22.00;53.70;;;;;;5036461;28;19909;-83
2021/06/19 02:54:12;;;;;;;;;;;22.00;53.90;;;;;;5033478;28;20351;-83
2021/06/19 02:56:37;;;;;;;;;;;22.00;54.10;;;;;;5035840;28;19992;-83
2021/06/19 02:59:03;;;;;;;;;;;21.90;54.10;;;;;;5034101;28;20324;-82
2021/06/19 03:01:28;;;;;;;;;;;21.90;54.40;;;;;;5018110;28;19909;-83
2021/06/19 03:03:54;;;;;;;;;;;21.80;54.60;;;;;;5034023;28;19986;-82
2021/06/19 03:06:19;;;;;;;;;;;21.80;54.80;;;;;;5035342;28;19912;-83
2021/06/19 03:08:44;;;;;;;;;;;21.80;55.00;;;;;;5016937;28;19921;-82
2021/06/19 03:11:10;;;;;;;;;;;21.70;55.10;;;;;;5034994;28;20400;-82
2021/06/19 03:13:35;;;;;;;;;;;21.70;55.20;;;;;;5034489;28;19991;-82
2021/06/19 03:16:01;;;;;;;;;;;21.60;55.40;;;;;;5035584;28;20401;-83
2021/06/19 03:18:26;;;;;;;;;;;21.60;55.40;;;;;;5034594;28;19913;-80
2021/06/19 03:20:52;;;;;;;;;;;21.60;55.50;;;;;;5033743;28;19920;-83
2021/06/19 03:23:17;;;;;;;;;;;21.60;55.70;;;;;;5035590;28;20370;-82
2021/06/19 03:25:43;;;;;;;;;;;21.60;55.80;;;;;;5016271;28;20286;-83
2021/06/19 03:28:10;;;;;;;;;;;21.60;55.90;;;;;;5035154;28;19913;-82
2021/06/19 03:30:36;;;;;;;;;;;21.60;56.00;;;;;;5013333;28;19976;-82
2021/06/19 03:33:03;;;;;;;;;;;21.60;56.10;;;;;;5015682;28;19941;-82
2021/06/19 03:35:28;;;;;;;;;;;21.60;56.20;;;;;;5006659;28;19983;-82
2021/06/19 03:37:55;;;;;;;;;;;21.50;56.10;;;;;;5034062;28;19917;-82
2021/06/19 03:40:20;;;;;;;;;;;21.50;56.20;;;;;;5034237;28;19943;-82
2021/06/19 03:42:47;;;;;;;;;;;21.50;56.20;;;;;;5016306;28;19917;-83
2021/06/19 03:45:13;;;;;;;;;;;21.50;56.40;;;;;;5034657;28;19996;-83
2021/06/19 03:47:39;;;;;;;;;;;21.50;56.60;;;;;;5016498;28;19957;-83
2021/06/19 03:50:05;;;;;;;;;;;21.40;56.70;;;;;;5033413;28;19975;-82
2021/06/19 03:52:31;;;;;;;;;;;21.40;56.70;;;;;;5034734;28;20372;-83
2021/06/19 03:54:56;;;;;;;;;;;21.40;56.90;;;;;;5033665;28;19945;-83
2021/06/19 03:57:25;;;;;;;;;;;21.40;57.20;;;;;;5034422;28;20402;-82
2021/06/19 03:59:51;;;;;;;;;;;21.40;57.30;;;;;;5033315;28;19913;-81
2021/06/19 04:02:17;;;;;;;;;;;21.40;57.50;;;;;;5017497;28;20416;-82
2021/06/19 04:04:43;;;;;;;;;;;21.40;57.60;;;;;;5030878;28;20334;-83
2021/06/19 04:07:08;;;;;;;;;;;21.40;57.80;;;;;;5014416;28;19917;-82
2021/06/19 04:09:33;;;;;;;;;;;21.40;58.00;;;;;;5018387;28;19992;-83
2021/06/19 04:11:59;;;;;;;;;;;21.40;58.10;;;;;;5033669;28;19913;-82
2021/06/19 04:14:24;;;;;;;;;;;21.40;58.30;;;;;;5020796;28;19921;-81
2021/06/19 04:16:50;;;;;;;;;;;21.50;58.50;;;;;;5040873;28;19909;-81
2021/06/19 04:19:15;;;;;;;;;;;21.50;58.60;;;;;;5034127;28;20426;-81
2021/06/19 04:21:41;;;;;;;;;;;21.50;58.60;;;;;;5034039;28;19909;-83
2021/06/19 04:24:06;;;;;;;;;;;21.60;58.90;;;;;;5032889;28;20360;-83
2021/06/19 04:26:32;;;;;;;;;;;21.60;59.00;;;;;;5016478;28;19909;-82
2021/06/19 04:28:57;;;;;;;;;;;21.60;59.10;;;;;;5032569;28;19917;-81
2021/06/19 04:31:23;;;;;;;;;;;21.60;59.30;;;;;;5033243;28;19914;-82
2021/06/19 04:33:48;;;;;;;;;;;21.70;59.60;;;;;;5033878;28;19909;-81
2021/06/19 04:36:14;;;;;;;;;;;21.70;59.90;;;;;;5033314;28;20011;-83
2021/06/19 04:38:39;;;;;;;;;;;21.70;60.20;;;;;;5033675;28;19963;-83
2021/06/19 04:41:09;;;;;;;;;;;21.70;60.40;;;;;;5032890;28;19928;-81
2021/06/19 04:43:52;;;;;;;;;;;21.70;60.70;;;;;;5034094;28;19915;-82
2021/06/19 04:46:17;;;;;;;;;;;21.80;61.20;;;;;;5031954;28;19972;-83
2021/06/19 04:48:43;;;;;;;;;;;21.80;61.80;;;;;;5033405;28;19974;-82
2021/06/19 04:51:08;;;;;;;;;;;21.80;61.90;;;;;;5016344;28;19967;-83
2021/06/19 04:53:34;;;;;;;;;;;21.80;62.20;;;;;;5020179;28;20363;-83
2021/06/19 04:56:03;;;;;;;;;;;21.90;62.50;;;;;;5036833;28;19920;-82
2021/06/19 04:58:28;;;;;;;;;;;22.00;62.70;;;;;;5038796;28;19916;-82
2021/06/19 05:00:54;;;;;;;;;;;22.10;62.70;;;;;;5028559;28;19913;-83
2021/06/19 05:03:22;;;;;;;;;;;22.20;62.80;;;;;;5037895;28;19960;-83
2021/06/19 05:05:49;;;;;;;;;;;22.30;62.80;;;;;;5018930;28;19919;-83
2021/06/19 05:08:15;;;;;;;;;;;22.40;63.00;;;;;;5037892;28;19917;-83
2021/06/19 05:10:40;;;;;;;;;;;22.40;63.20;;;;;;5036700;28;19909;-83
2021/06/19 05:13:06;;;;;;;;;;;22.50;63.50;;;;;;5019533;28;19996;-83
2021/06/19 05:15:31;;;;;;;;;;;22.50;63.80;;;;;;5022190;28;19921;-82
2021/06/19 05:17:57;;;;;;;;;;;22.60;64.00;;;;;;5034923;28;19915;-83
2021/06/19 05:20:23;;;;;;;;;;;22.60;64.30;;;;;;5033743;28;19921;-83
2021/06/19 05:23:09;;;;;;;;;;;22.70;64.90;;;;;;5038886;28;19928;-84
2021/06/19 05:25:37;;;;;;;;;;;22.70;65.20;;;;;;5031958;28;19917;-84
2021/06/19 05:28:03;;;;;;;;;;;22.80;65.70;;;;;;5049972;28;19913;-84
2021/06/19 05:30:28;;;;;;;;;;;22.90;65.80;;;;;;5050525;28;19955;-84
2021/06/19 05:32:56;;;;;;;;;;;23.00;66.00;;;;;;5051840;28;19924;-85
2021/06/19 05:35:22;;;;;;;;;;;23.00;66.30;;;;;;5050587;28;19916;-85
2021/06/19 05:37:50;;;;;;;;;;;23.10;67.40;;;;;;5049352;28;19925;-85
2021/06/19 05:40:16;;;;;;;;;;;23.10;66.90;;;;;;5029612;28;19913;-84
2021/06/19 05:42:42;;;;;;;;;;;23.20;67.30;;;;;;5025374;28;19931;-84
2021/06/19 05:45:08;;;;;;;;;;;23.20;67.30;;;;;;5022152;28;20271;-84
2021/06/19 05:47:33;;;;;;;;;;;23.40;67.70;;;;;;5042455;28;19917;-86
2021/06/19 05:49:59;;;;;;;;;;;23.50;67.60;;;;;;5043728;28;19924;-85
2021/06/19 05:52:26;;;;;;;;;;;23.70;67.60;;;;;;5044675;28;19923;-84
2021/06/19 05:54:51;;;;;;;;;;;23.80;67.60;;;;;;5043736;28;19961;-85
2021/06/19 05:57:17;;;;;;;;;;;23.90;67.80;;;;;;5043326;28;19921;-84
2021/06/19 05:59:47;;;;;;;;;;;23.90;67.90;;;;;;5043279;28;19913;-86
2021/06/19 06:02:12;;;;;;;;;;;24.00;67.90;;;;;;5040931;28;20372;-85
2021/06/19 06:04:38;;;;;;;;;;;24.00;67.80;;;;;;5042587;28;19944;-85
2021/06/19 06:07:03;;;;;;;;;;;24.10;68.00;;;;;;5041920;28;20019;-85
2021/06/19 06:09:39;;;;;;;;;;;;;;;;;;;;;
2021/06/19 06:12:06;;;;;;;;;;;24.50;68.10;;;;;;5037572;28;20008;-84
2021/06/19 06:14:38;;;;;;;;;;;25.10;67.60;;;;;;5039463;28;19936;-85
2021/06/19 06:17:04;;;;;;;;;;;26.20;65.90;;;;;;5038750;28;19913;-85
2021/06/19 06:19:32;;;;;;;;;;;28.90;60.30;;;;;;5035860;28;20000;-85
2021/06/19 06:21:57;;;;;;;;;;;32.00;54.20;;;;;;5033667;28;20343;-85
2021/06/19 06:24:26;;;;;;;;;;;35.00;48.50;;;;;;5017402;28;19945;-85
2021/06/19 06:26:58;;;;;;;;;;;37.80;44.50;;;;;;5034796;28;19913;-85
2021/06/19 06:29:26;;;;;;;;;;;40.00;41.20;;;;;;5034550;28;20449;-86
2021/06/19 06:44:03;;;;;;;;;;;47.10;34.00;;;;;;5012493;28;19975;-86
2021/06/19 06:46:28;;;;;;;;;;;48.00;32.70;;;;;;5033863;28;20418;-87
2021/06/19 06:48:54;;;;;;;;;;;48.30;32.10;;;;;;5030536;28;19956;-86
2021/06/19 06:51:19;;;;;;;;;;;49.00;31.80;;;;;;5033467;28;20345;-84
2021/06/19 06:53:47;;;;;;;;;;;49.80;31.30;;;;;;5034198;28;19913;-85
2021/06/19 06:56:13;;;;;;;;;;;50.30;30.70;;;;;;5033609;28;19917;-85
2021/06/19 06:58:38;;;;;;;;;;;50.90;30.40;;;;;;5016425;28;20366;-83
2021/06/19 07:01:11;;;;;;;;;;;51.50;30.00;;;;;;5015591;28;19913;-85
2021/06/19 07:03:37;;;;;;;;;;;52.30;29.40;;;;;;5034636;28;19909;-85
2021/06/19 07:06:05;;;;;;;;;;;53.00;28.80;;;;;;5039023;28;19985;-86
2021/06/19 07:08:30;;;;;;;;;;;53.90;28.30;;;;;;5052274;28;19909;-85
2021/06/19 07:10:58;;;;;;;;;;;54.80;27.80;;;;;;5043137;28;20362;-84
2021/06/19 07:13:23;;;;;;;;;;;55.50;27.20;;;;;;5031904;28;19909;-86
2021/06/19 07:15:49;;;;;;;;;;;56.30;26.70;;;;;;5026378;28;19920;-84
2021/06/19 07:18:15;;;;;;;;;;;56.70;26.00;;;;;;5034837;28;20075;-84
2021/06/19 07:20:40;;;;;;;;;;;57.10;25.90;;;;;;5013575;28;19955;-85
2021/06/19 07:23:06;;;;;;;;;;;57.70;25.70;;;;;;5033135;28;20008;-85
2021/06/19 07:25:31;;;;;;;;;;;57.90;25.30;;;;;;5031946;28;20003;-84
2021/06/19 07:27:59;;;;;;;;;;;58.00;25.10;;;;;;5002349;28;19913;-84
2021/06/19 07:30:25;;;;;;;;;;;57.70;25.00;;;;;;5039893;28;19913;-83
2021/06/19 07:32:51;;;;;;;;;;;56.80;25.60;;;;;;5040546;28;19909;-85
2021/06/19 07:35:17;;;;;;;;;;;56.40;26.00;;;;;;5028569;28;20512;-83
2021/06/19 07:37:42;;;;;;;;;;;56.20;26.00;;;;;;5014199;28;19917;-83
2021/06/19 07:40:08;;;;;;;;;;;55.80;26.00;;;;;;5023857;28;19921;-84
2021/06/19 07:42:36;;;;;;;;;;;55.60;26.20;;;;;;5009100;28;19925;-83
2021/06/19 07:45:03;;;;;;;;;;;55.60;26.20;;;;;;5025019;28;19984;-84
2021/06/19 07:47:28;;;;;;;;;;;55.40;26.10;;;;;;5022143;28;20254;-86
2021/06/19 07:49:54;;;;;;;;;;;55.20;26.00;;;;;;5019911;28;20270;-82
2021/06/19 07:52:20;;;;;;;;;;;55.00;25.80;;;;;;5016057;28;19928;-82
2021/06/19 07:54:45;;;;;;;;;;;54.90;25.70;;;;;;5016480;28;19921;-81
2021/06/19 07:57:11;;;;;;;;;;;54.80;25.80;;;;;;5003836;28;19925;-82
2021/06/19 07:59:37;;;;;;;;;;;54.80;25.70;;;;;;5017952;28;19925;-82
2021/06/19 08:02:02;;;;;;;;;;;54.80;25.80;;;;;;4999480;28;19971;-83
2021/06/19 08:04:28;;;;;;;;;;;55.00;25.70;;;;;;5018225;28;19921;-82
2021/06/19 08:06:53;;;;;;;;;;;55.00;25.60;;;;;;5012074;28;19987;-83
2021/06/19 08:09:19;;;;;;;;;;;55.10;25.70;;;;;;5027606;28;19920;-83
2021/06/19 08:11:44;;;;;;;;;;;55.30;25.60;;;;;;5012986;28;19968;-84
2021/06/19 08:14:10;;;;;;;;;;;55.10;25.50;;;;;;5030436;28;19921;-83
2021/06/19 08:16:36;;;;;;;;;;;54.90;25.60;;;;;;5027710;28;19920;-83
2021/06/19 08:19:01;;;;;;;;;;;54.90;25.50;;;;;;5014060;28;19975;-84
2021/06/19 08:21:27;;;;;;;;;;;54.60;25.40;;;;;;5027399;28;19972;-83
2021/06/19 08:23:52;;;;;;;;;;;54.40;25.40;;;;;;5030381;28;19917;-84
2021/06/19 08:26:18;;;;;;;;;;;54.10;25.50;;;;;;5048424;28;20043;-83
2021/06/19 08:28:43;;;;;;;;;;;53.80;25.50;;;;;;5028324;28;19924;-83
2021/06/19 08:31:08;;;;;;;;;;;53.30;25.40;;;;;;5027706;28;19918;-83
2021/06/19 08:33:34;;;;;;;;;;;53.30;25.70;;;;;;5037787;28;19927;-82
2021/06/19 08:35:59;;;;;;;;;;;53.50;25.60;;;;;;5040188;28;19913;-82
2021/06/19 08:38:25;;;;;;;;;;;53.50;25.30;;;;;;5038255;28;19917;-83
2021/06/19 08:40:50;;;;;;;;;;;53.30;25.20;;;;;;5034171;28;19982;-82
2021/06/19 08:43:18;;;;;;;;;;;53.30;25.30;;;;;;5042935;28;19955;-83
2021/06/19 08:45:45;;;;;;;;;;;53.50;25.30;;;;;;5019765;28;20506;-83
2021/06/19 08:48:11;;;;;;;;;;;53.50;25.30;;;;;;5035882;28;20373;-83
2021/06/19 08:50:37;;;;;;;;;;;53.40;25.40;;;;;;5036297;28;19913;-83
2021/06/19 08:53:02;;;;;;;;;;;53.50;25.30;;;;;;5036359;28;19969;-83
2021/06/19 08:55:28;;;;;;;;;;;53.60;25.20;;;;;;5033762;28;19941;-81
2021/06/19 08:57:53;;;;;;;;;;;53.70;25.30;;;;;;5033490;28;20472;-82
2021/06/19 09:00:19;;;;;;;;;;;54.20;25.40;;;;;;5036956;28;19917;-82
2021/06/19 09:02:48;;;;;;;;;;;54.50;25.20;;;;;;5018688;28;19924;-82
2021/06/19 09:05:14;;;;;;;;;;;54.50;25.20;;;;;;5020426;28;19929;-82
2021/06/19 09:07:40;;;;;;;;;;;54.50;25.20;;;;;;5019912;28;20342;-83
2021/06/19 09:10:24;;;;;;;;;;;54.50;25.40;;;;;;5037325;28;19956;-83
2021/06/19 09:13:08;;;;;;;;;;;54.60;25.50;;;;;;5018026;28;19935;-83
2021/06/19 09:15:38;;;;;;;;;;;54.50;25.40;;;;;;5036144;28;19921;-83
2021/06/19 09:18:05;;;;;;;;;;;54.30;25.40;;;;;;5038341;28;19909;-82
2021/06/19 09:20:35;;;;;;;;;;;54.10;25.50;;;;;;5039017;28;19909;-82
2021/06/19 09:23:01;;;;;;;;;;;54.10;25.40;;;;;;5038708;28;19919;-83
2021/06/19 09:25:27;;;;;;;;;;;54.00;25.30;;;;;;5034233;28;19956;-83
2021/06/19 09:27:53;;;;;;;;;;;54.10;25.40;;;;;;5021035;28;19909;-84
2021/06/19 09:30:19;;;;;;;;;;;54.10;25.40;;;;;;5038477;28;19971;-83
2021/06/19 09:32:52;;;;;;;;;;;53.90;25.50;;;;;;5039426;28;19979;-81
2021/06/19 09:35:25;;;;;;;;;;;53.70;25.60;;;;;;5037929;28;19928;-83
2021/06/19 09:37:52;;;;;;;;;;;53.60;25.60;;;;;;5029896;28;19928;-82
2021/06/19 09:40:21;;;;;;;;;;;53.30;25.70;;;;;;5036369;28;20268;-82
2021/06/19 09:42:47;;;;;;;;;;;53.00;25.60;;;;;;5024997;28;20339;-83
2021/06/19 09:45:23;;;;;;;;;;;52.60;25.30;;;;;;5035512;28;19913;-83
2021/06/19 09:47:48;;;;;;;;;;;52.30;25.70;;;;;;5019106;28;19918;-82
2021/06/19 09:50:17;;;;;;;;;;;52.30;25.80;;;;;;5034531;28;19936;-83
2021/06/19 09:52:42;;;;;;;;;;;52.30;25.80;;;;;;5038629;28;19921;-82
2021/06/19 09:55:12;;;;;;;;;;;51.90;25.60;;;;;;5036041;28;19909;-84
2021/06/19 09:57:41;;;;;;;;;;;51.50;25.70;;;;;;5036641;28;19913;-83
2021/06/19 10:00:20;;;;;;;;;;;50.90;25.60;;;;;;5036335;28;20264;-84
2021/06/19 10:02:46;;;;;;;;;;;50.80;25.90;;;;;;5025755;28;19971;-83
2021/06/19 10:05:12;;;;;;;;;;;50.80;26.00;;;;;;5040842;28;19948;-79
2021/06/19 10:07:38;;;;;;;;;;;50.60;26.00;;;;;;5036325;28;20330;-83
2021/06/19 10:10:05;;;;;;;;;;;50.60;26.10;;;;;;5017686;28;20371;-83
2021/06/19 10:12:32;;;;;;;;;;;50.70;26.20;;;;;;5036927;28;19956;-82
2021/06/19 10:15:03;;;;;;;;;;;50.80;26.10;;;;;;5037315;28;20482;-83
2021/06/19 10:17:32;;;;;;;;;;;50.90;26.00;;;;;;5037565;28;19913;-82
2021/06/19 10:20:01;;;;;;;;;;;50.80;26.00;;;;;;5029917;28;19932;-84
2021/06/19 10:22:27;;;;;;;;;;;50.70;26.00;;;;;;5019848;28;19963;-83
2021/06/19 10:24:53;;;;;;;;;;;50.60;25.90;;;;;;5036047;28;19916;-83
2021/06/19 10:27:19;;;;;;;;;;;50.60;26.00;;;;;;5041876;28;20386;-83
2021/06/19 10:29:45;;;;;;;;;;;50.50;26.00;;;;;;5036883;28;19913;-83
2021/06/19 10:32:10;;;;;;;;;;;50.50;26.00;;;;;;5038151;28;19917;-84
2021/06/19 10:34:38;;;;;;;;;;;50.60;26.00;;;;;;5019516;28;20416;-83
2021/06/19 10:37:04;;;;;;;;;;;50.50;26.10;;;;;;5036707;28;19916;-83
2021/06/19 10:39:30;;;;;;;;;;;50.90;26.00;;;;;;5035929;28;19917;-83
2021/06/19 10:41:55;;;;;;;;;;;50.70;25.80;;;;;;5039041;28;19945;-84
2021/06/19 10:44:39;;;;;;;;;;;50.10;25.90;;;;;;5047643;28;19901;-82
2021/06/19 10:47:05;;;;;;;;;;;49.90;25.80;;;;;;5054587;28;19913;-84
2021/06/19 10:49:30;;;;;;;;;;;49.50;25.70;;;;;;5041968;28;19913;-83
2021/06/19 10:52:14;;;;;;;;;;;48.20;25.80;;;;;;5038628;28;19917;-83
2021/06/19 10:55:00;;;;;;;;;;;46.50;26.70;;;;;;5037115;28;20502;-83
2021/06/19 10:57:44;;;;;;;;;;;46.70;27.20;;;;;;5035375;28;19929;-83
2021/06/19 11:00:23;;;;;;;;;;;47.50;26.80;;;;;;5039454;28;19913;-84
2021/06/19 11:02:49;;;;;;;;;;;47.40;26.40;;;;;;5040494;28;19912;-84
2021/06/19 11:05:35;;;;;;;;;;;46.60;26.70;;;;;;5021299;28;19944;-82
2021/06/19 11:08:00;;;;;;;;;;;46.10;26.90;;;;;;5019911;28;19917;-83
2021/06/19 11:10:44;;;;;;;;;;;45.80;27.00;;;;;;5037386;28;19917;-83
2021/06/19 11:13:28;;;;;;;;;;;46.00;27.50;;;;;;5038857;28;19999;-83
2021/06/19 11:15:54;;;;;;;;;;;46.00;26.80;;;;;;5036652;28;19944;-83
2021/06/19 11:18:38;;;;;;;;;;;45.50;27.00;;;;;;5039322;28;20294;-84
2021/06/19 11:21:11;;;;;;;;;;;44.80;27.20;;;;;;5030792;28;19917;-83
2021/06/19 11:23:55;;;;;;;;;;;44.20;27.70;;;;;;5037569;28;19913;-82
2021/06/19 11:26:52;;;;;;;;;;;;;;;;;;;;;
2021/06/19 11:46:19;;;;;;;;;;;;;;;;;;;;;
2021/06/19 11:59:01;;;;;;;;;;;;;;;;;;;;;
2021/06/19 12:05:24;;;;;;;;;;;43.90;27.90;;;;;;4918283;28;19922;-80
2021/06/19 12:11:07;;;;;;;;;;;;;;;;;;;;;
2021/06/19 12:13:42;;;;;;;;;;;39.50;29.40;;;;;;5022157;28;19913;-81
2021/06/19 12:16:23;;;;;;;;;;;;;;;;;;;;;
2021/06/19 12:19:16;;;;;;;;;;;38.00;30.40;;;;;;5026410;28;19917;-81
2021/06/19 12:31:05;;;;;;;;;;;42.00;28.50;;;;;;5023341;28;20341;-81
2021/06/19 12:33:32;;;;;;;;;;;42.40;28.10;;;;;;5018773;28;19917;-82
2021/06/19 12:35:58;;;;;;;;;;;42.30;28.10;;;;;;5019294;28;19913;-82
2021/06/19 12:38:24;;;;;;;;;;;42.30;28.20;;;;;;5037227;28;19959;-81
2021/06/19 12:40:50;;;;;;;;;;;42.00;28.40;;;;;;5036443;28;19956;-81
2021/06/19 12:43:15;;;;;;;;;;;41.70;28.70;;;;;;5034925;28;20302;-81
2021/06/19 12:45:45;;;;;;;;;;;41.50;28.80;;;;;;5034077;28;20414;-81
2021/06/19 12:48:20;;;;;;;;;;;41.00;29.10;;;;;;5013298;28;19967;-81
2021/06/19 14:01:11;;;;;;;;;;;;;;;;;;;;;
2021/06/19 14:04:03;;;;;;;;;;;37.20;32.10;;;;;;5060075;28;19992;-81
2021/06/19 14:12:50;;;;;;;;;;;;;;;;;;;;;
2021/06/19 14:21:12;;;;;;;;;;;35.60;33.70;;;;;;5032643;28;19940;-78
2021/06/19 14:23:44;;;;;;;;;;;35.30;33.80;;;;;;5044998;28;19913;-80
2021/06/19 14:26:26;;;;;;;;;;;35.10;34.10;;;;;;5056973;28;19912;-80
2021/06/19 14:29:00;;;;;;;;;;;34.90;34.30;;;;;;5058548;28;19913;-80
2021/06/19 14:31:28;;;;;;;;;;;34.70;34.60;;;;;;5056911;28;19935;-80
2021/06/19 14:33:56;;;;;;;;;;;34.40;34.80;;;;;;5048745;28;19916;-80
2021/06/19 14:36:21;;;;;;;;;;;34.40;35.00;;;;;;5039906;28;20345;-80
2021/06/19 14:38:47;;;;;;;;;;;34.40;35.00;;;;;;5052510;28;20009;-79
2021/06/19 14:41:13;;;;;;;;;;;34.40;35.00;;;;;;5058698;28;19998;-80
2021/06/19 14:43:39;;;;;;;;;;;34.40;35.00;;;;;;5045244;28;19917;-80
2021/06/19 14:46:05;;;;;;;;;;;34.40;35.00;;;;;;5049762;28;19923;-80
2021/06/19 14:48:31;;;;;;;;;;;34.40;35.20;;;;;;5055576;28;19949;-79
2021/06/19 14:50:58;;;;;;;;;;;34.30;35.30;;;;;;5055118;28;20003;-80
2021/06/19 14:53:25;;;;;;;;;;;34.20;35.30;;;;;;5058479;28;19917;-80
2021/06/19 14:55:50;;;;;;;;;;;34.30;35.40;;;;;;5050206;28;19942;-79
2021/06/19 14:58:16;;;;;;;;;;;34.30;35.50;;;;;;5054024;28;19994;-81
2021/06/19 15:00:42;;;;;;;;;;;34.30;35.60;;;;;;5041267;28;19986;-80
2021/06/19 15:03:07;;;;;;;;;;;34.30;35.70;;;;;;5040761;28;19959;-80
2021/06/19 15:05:33;;;;;;;;;;;34.30;35.80;;;;;;5051450;28;19913;-80
2021/06/19 15:19:02;;;;;;;;;;;34.30;36.00;;;;;;5360707;22;19929;-78
2021/06/19 16:14:03;;;;;;;;;;;;;;;;;;;;;
2021/06/19 16:17:04;;;;;;;;;;;33.90;37.20;;;;;;5057295;28;19996;-80
2021/06/19 16:19:53;;;;;;;;;;;33.80;37.30;;;;;;5044222;28;19928;-80
2021/06/19 16:32:27;;;;;;;;;;;;;;;;;;;;;
2021/06/19 16:35:16;;;;;;;;;;;33.10;37.90;;;;;;5060098;28;20007;-80
2021/06/19 16:37:42;;;;;;;;;;;33.10;38.00;;;;;;5054697;28;19998;-80
2021/06/19 16:40:08;;;;;;;;;;;33.10;38.00;;;;;;5042501;28;20393;-81
2021/06/19 16:42:36;;;;;;;;;;;33.10;38.00;;;;;;5040641;28;19921;-80
2021/06/19 16:45:02;;;;;;;;;;;33.20;38.00;;;;;;5058072;28;19913;-82
2021/06/19 16:47:30;;;;;;;;;;;33.20;38.10;;;;;;5040836;28;19917;-79
2021/06/19 16:49:55;;;;;;;;;;;33.10;38.10;;;;;;5056218;28;19920;-80
2021/06/19 16:52:37;;;;;;;;;;;33.10;38.20;;;;;;5041591;28;19912;-80
2021/06/19 16:55:32;;;;;;;;;;;33.00;38.20;;;;;;5050673;28;20099;-81
2021/06/19 16:58:07;;;;;;;;;;;33.00;38.30;;;;;;5023310;28;19943;-81
2021/06/19 17:00:34;;;;;;;;;;;33.00;38.80;;;;;;5061451;28;19928;-81
2021/06/19 17:03:08;;;;;;;;;;;33.10;38.20;;;;;;5053688;28;19913;-80
2021/06/19 17:05:34;;;;;;;;;;;33.10;38.20;;;;;;5062641;28;19936;-80
2021/06/19 17:08:00;;;;;;;;;;;33.10;38.30;;;;;;5060001;28;19913;-80
2021/06/19 17:10:37;;;;;;;;;;;;;;;;;;;;;
2021/06/19 17:13:32;;;;;;;;;;;32.90;38.50;;;;;;5059263;28;20012;-79
2021/06/19 17:16:13;;;;;;;;;;;32.80;38.60;;;;;;5049998;28;19913;-79
2021/06/19 17:19:03;;;;;;;;;;;32.80;38.80;;;;;;5026376;28;19916;-80
2021/06/19 17:22:05;;;;;;;;;;;32.60;38.90;;;;;;5060242;28;20344;-81
2021/06/19 17:25:12;;;;;;;;;;;32.50;39.20;;;;;;5012631;28;19916;-80
2021/06/19 17:27:40;;;;;;;;;;;32.30;39.50;;;;;;5059419;28;19917;-81
2021/06/19 17:30:16;;;;;;;;;;;32.20;39.70;;;;;;5044422;28;19920;-81
2021/06/19 17:32:51;;;;;;;;;;;32.10;39.80;;;;;;5045231;28;19913;-81
2021/06/19 17:35:27;;;;;;;;;;;32.10;40.00;;;;;;5061314;28;19991;-81
2021/06/19 17:41:25;;;;;;;;;;;;;;;;;;;;;
2021/06/19 17:44:01;;;;;;;;;;;;;;;;;;;;;
2021/06/19 17:46:29;;;;;;;;;;;31.70;40.60;;;;;;5062454;28;20000;-80
2021/06/19 17:48:58;;;;;;;;;;;31.60;40.70;;;;;;5062309;28;20344;-80
2021/06/19 17:51:25;;;;;;;;;;;31.50;40.90;;;;;;5043864;28;19940;-80
2021/06/19 17:54:32;;;;;;;;;;;31.40;41.00;;;;;;5062474;28;19913;-81
2021/06/19 18:00:22;;;;;;;;;;;31.20;41.50;;;;;;4979866;28;19918;-81
2021/06/19 18:02:50;;;;;;;;;;;31.00;41.80;;;;;;5033254;28;19913;-82
2021/06/19 18:12:24;;;;;;;;;;;;;;;;;;;;;
2021/06/19 18:15:43;;;;;;;;;;;30.60;42.50;;;;;;4961013;28;19918;-81
2021/06/19 18:21:37;;;;;;;;;;;30.40;42.80;;;;;;4979984;28;19928;-81
2021/06/19 18:24:13;;;;;;;;;;;;;;;;;;;;;
2021/06/19 18:30:07;;;;;;;;;;;;;;;;;;;;;
2021/06/19 18:38:47;;;;;;;;;;;29.60;43.80;;;;;;4958857;29;19923;-80
2021/06/19 18:41:13;;;;;;;;;;;29.50;44.10;;;;;;5044639;28;19926;-80
2021/06/19 18:43:48;;;;;;;;;;;29.40;44.50;;;;;;5040517;28;20271;-79
2021/06/19 18:46:13;;;;;;;;;;;29.20;44.60;;;;;;5058915;28;19958;-80
2021/06/19 18:48:52;;;;;;;;;;;;;;;;;;;;;
2021/06/19 18:51:18;;;;;;;;;;;28.90;45.10;;;;;;5059455;28;20016;-80
2021/06/19 18:53:43;;;;;;;;;;;28.80;45.30;;;;;;5045504;28;19941;-79